sensor_id;sensor_type;location;lat;lon;timestamp;P1;durP1;ratioP1;P2;durP2;ratioP2
12836;SDS011;6485;51.472;5.268;2022-07-23T00:00:57;6.20;;;4.40;;
12836;SDS011;6485;51.472;5.268;2022-07-23T00:03:27;7.23;;;4.57;;
12836;SDS011;6485;51.472;5.268;2022-07-23T00:05:55;7.17;;;4.30;;
12836;SDS011;6485;51.472;5.268;2022-07-23T00:08:23;5.57;;;3.97;;
12836;SDS011;6485;51.472;5.268;2022-07-23T00:10:52;6.90;;;4.60;;
12836;SDS011;6485;51.472;5.268;2022-07-23T00:13:20;7.17;;;4.67;;
12836;SDS011;6485;51.472;5.268;2022-07-23T00:15:48;7.07;;;4.17;;
12836;SDS011;6485;51.472;5.268;2022-07-23T00:18:16;8.73;;;4.50;;
12836;SDS011;6485;51.472;5.268;2022-07-23T00:20:46;6.67;;;4.60;;
12836;SDS011;6485;51.472;5.268;2022-07-23T00:23:14;6.03;;;4.50;;
12836;SDS011;6485;51.472;5.268;2022-07-23T00:25:44;6.40;;;4.17;;
12836;SDS011;6485;51.472;5.268;2022-07-23T00:28:12;6.40;;;4.40;;
12836;SDS011;6485;51.472;5.268;2022-07-23T00:30:41;7.40;;;4.47;;
12836;SDS011;6485;51.472;5.268;2022-07-23T00:33:09;6.40;;;4.70;;
12836;SDS011;6485;51.472;5.268;2022-07-23T00:35:38;8.00;;;4.87;;
12836;SDS011;6485;51.472;5.268;2022-07-23T00:38:09;7.17;;;4.83;;
12836;SDS011;6485;51.472;5.268;2022-07-23T00:40:38;6.57;;;4.77;;
12836;SDS011;6485;51.472;5.268;2022-07-23T00:43:07;6.43;;;4.60;;
12836;SDS011;6485;51.472;5.268;2022-07-23T00:45:35;5.27;;;4.20;;
12836;SDS011;6485;51.472;5.268;2022-07-23T00:48:04;6.03;;;4.43;;
12836;SDS011;6485;51.472;5.268;2022-07-23T00:50:32;6.70;;;4.93;;
12836;SDS011;6485;51.472;5.268;2022-07-23T00:53:01;7.90;;;4.73;;
12836;SDS011;6485;51.472;5.268;2022-07-23T00:55:30;7.77;;;4.90;;
12836;SDS011;6485;51.472;5.268;2022-07-23T00:57:59;8.47;;;4.50;;
12836;SDS011;6485;51.472;5.268;2022-07-23T01:00:29;6.47;;;4.50;;
12836;SDS011;6485;51.472;5.268;2022-07-23T01:02:57;7.57;;;4.80;;
12836;SDS011;6485;51.472;5.268;2022-07-23T01:05:25;8.07;;;4.30;;
12836;SDS011;6485;51.472;5.268;2022-07-23T01:07:54;6.07;;;4.57;;
12836;SDS011;6485;51.472;5.268;2022-07-23T01:10:23;6.63;;;4.33;;
12836;SDS011;6485;51.472;5.268;2022-07-23T01:13:03;7.43;;;4.60;;
12836;SDS011;6485;51.472;5.268;2022-07-23T01:15:32;6.00;;;4.40;;
12836;SDS011;6485;51.472;5.268;2022-07-23T01:18:02;8.83;;;4.80;;
12836;SDS011;6485;51.472;5.268;2022-07-23T01:20:31;5.60;;;4.23;;
12836;SDS011;6485;51.472;5.268;2022-07-23T01:23:02;7.80;;;4.87;;
12836;SDS011;6485;51.472;5.268;2022-07-23T01:25:30;12.43;;;4.87;;
12836;SDS011;6485;51.472;5.268;2022-07-23T01:27:59;6.17;;;4.20;;
12836;SDS011;6485;51.472;5.268;2022-07-23T01:30:27;7.43;;;4.70;;
12836;SDS011;6485;51.472;5.268;2022-07-23T01:32:56;6.77;;;4.70;;
12836;SDS011;6485;51.472;5.268;2022-07-23T01:35:24;6.80;;;4.00;;
12836;SDS011;6485;51.472;5.268;2022-07-23T01:37:52;8.37;;;4.10;;
12836;SDS011;6485;51.472;5.268;2022-07-23T01:40:22;5.30;;;4.20;;
12836;SDS011;6485;51.472;5.268;2022-07-23T01:42:50;6.03;;;4.60;;
12836;SDS011;6485;51.472;5.268;2022-07-23T01:45:18;6.67;;;5.10;;
12836;SDS011;6485;51.472;5.268;2022-07-23T01:47:46;9.97;;;4.97;;
12836;SDS011;6485;51.472;5.268;2022-07-23T01:50:15;7.67;;;4.73;;
12836;SDS011;6485;51.472;5.268;2022-07-23T01:52:44;7.97;;;5.40;;
12836;SDS011;6485;51.472;5.268;2022-07-23T01:55:12;7.10;;;4.67;;
12836;SDS011;6485;51.472;5.268;2022-07-23T01:57:46;10.77;;;5.53;;
12836;SDS011;6485;51.472;5.268;2022-07-23T02:00:14;7.47;;;5.07;;
12836;SDS011;6485;51.472;5.268;2022-07-23T02:02:43;8.53;;;4.90;;
12836;SDS011;6485;51.472;5.268;2022-07-23T02:05:11;6.67;;;4.97;;
12836;SDS011;6485;51.472;5.268;2022-07-23T02:07:39;9.13;;;5.23;;
12836;SDS011;6485;51.472;5.268;2022-07-23T02:10:08;6.80;;;5.10;;
12836;SDS011;6485;51.472;5.268;2022-07-23T02:12:36;6.53;;;5.10;;
12836;SDS011;6485;51.472;5.268;2022-07-23T02:15:07;9.23;;;5.23;;
12836;SDS011;6485;51.472;5.268;2022-07-23T02:17:35;7.10;;;5.07;;
12836;SDS011;6485;51.472;5.268;2022-07-23T02:20:04;6.80;;;4.70;;
12836;SDS011;6485;51.472;5.268;2022-07-23T02:22:33;8.90;;;5.10;;
12836;SDS011;6485;51.472;5.268;2022-07-23T02:25:02;7.47;;;4.70;;
12836;SDS011;6485;51.472;5.268;2022-07-23T02:27:31;8.60;;;4.63;;
12836;SDS011;6485;51.472;5.268;2022-07-23T02:29:59;8.20;;;5.30;;
12836;SDS011;6485;51.472;5.268;2022-07-23T02:32:29;7.67;;;4.80;;
12836;SDS011;6485;51.472;5.268;2022-07-23T02:34:57;6.00;;;4.60;;
12836;SDS011;6485;51.472;5.268;2022-07-23T02:37:25;6.63;;;4.80;;
12836;SDS011;6485;51.472;5.268;2022-07-23T02:39:53;6.17;;;4.63;;
12836;SDS011;6485;51.472;5.268;2022-07-23T02:42:22;8.13;;;5.20;;
12836;SDS011;6485;51.472;5.268;2022-07-23T02:44:51;10.27;;;5.63;;
12836;SDS011;6485;51.472;5.268;2022-07-23T02:47:19;8.97;;;5.30;;
12836;SDS011;6485;51.472;5.268;2022-07-23T02:49:49;6.60;;;5.17;;
12836;SDS011;6485;51.472;5.268;2022-07-23T02:52:17;9.00;;;5.43;;
12836;SDS011;6485;51.472;5.268;2022-07-23T02:54:46;10.93;;;5.77;;
12836;SDS011;6485;51.472;5.268;2022-07-23T02:57:14;11.57;;;6.43;;
12836;SDS011;6485;51.472;5.268;2022-07-23T02:59:42;11.37;;;6.30;;
12836;SDS011;6485;51.472;5.268;2022-07-23T03:02:10;10.80;;;6.17;;
12836;SDS011;6485;51.472;5.268;2022-07-23T03:04:38;8.30;;;5.50;;
12836;SDS011;6485;51.472;5.268;2022-07-23T03:07:10;9.10;;;5.73;;
12836;SDS011;6485;51.472;5.268;2022-07-23T03:09:38;10.10;;;6.13;;
12836;SDS011;6485;51.472;5.268;2022-07-23T03:12:07;9.43;;;6.00;;
12836;SDS011;6485;51.472;5.268;2022-07-23T03:14:40;12.00;;;6.30;;
12836;SDS011;6485;51.472;5.268;2022-07-23T03:17:09;10.27;;;5.97;;
12836;SDS011;6485;51.472;5.268;2022-07-23T03:19:37;10.57;;;6.40;;
12836;SDS011;6485;51.472;5.268;2022-07-23T03:22:05;7.97;;;5.80;;
12836;SDS011;6485;51.472;5.268;2022-07-23T03:24:35;9.57;;;6.30;;
12836;SDS011;6485;51.472;5.268;2022-07-23T03:27:21;9.33;;;6.70;;
12836;SDS011;6485;51.472;5.268;2022-07-23T03:29:51;8.10;;;6.23;;
12836;SDS011;6485;51.472;5.268;2022-07-23T03:32:20;9.33;;;6.30;;
12836;SDS011;6485;51.472;5.268;2022-07-23T03:34:49;10.07;;;6.70;;
12836;SDS011;6485;51.472;5.268;2022-07-23T03:37:18;10.03;;;6.63;;
12836;SDS011;6485;51.472;5.268;2022-07-23T03:39:48;10.30;;;6.47;;
12836;SDS011;6485;51.472;5.268;2022-07-23T03:42:17;11.50;;;7.13;;
12836;SDS011;6485;51.472;5.268;2022-07-23T03:44:45;8.77;;;6.23;;
12836;SDS011;6485;51.472;5.268;2022-07-23T03:47:13;8.30;;;6.03;;
12836;SDS011;6485;51.472;5.268;2022-07-23T03:49:43;9.87;;;6.30;;
12836;SDS011;6485;51.472;5.268;2022-07-23T03:52:11;9.97;;;6.20;;
12836;SDS011;6485;51.472;5.268;2022-07-23T03:54:39;13.43;;;7.30;;
12836;SDS011;6485;51.472;5.268;2022-07-23T03:57:09;12.23;;;6.73;;
12836;SDS011;6485;51.472;5.268;2022-07-23T03:59:37;8.23;;;6.10;;
12836;SDS011;6485;51.472;5.268;2022-07-23T04:02:06;8.93;;;6.23;;
12836;SDS011;6485;51.472;5.268;2022-07-23T04:04:34;11.73;;;5.97;;
12836;SDS011;6485;51.472;5.268;2022-07-23T04:07:02;11.17;;;6.03;;
12836;SDS011;6485;51.472;5.268;2022-07-23T04:09:31;9.07;;;6.10;;
12836;SDS011;6485;51.472;5.268;2022-07-23T04:11:59;9.97;;;6.83;;
12836;SDS011;6485;51.472;5.268;2022-07-23T04:14:28;9.73;;;6.47;;
12836;SDS011;6485;51.472;5.268;2022-07-23T04:16:57;13.23;;;7.10;;
12836;SDS011;6485;51.472;5.268;2022-07-23T04:19:25;13.60;;;6.97;;
12836;SDS011;6485;51.472;5.268;2022-07-23T04:21:53;10.23;;;6.53;;
12836;SDS011;6485;51.472;5.268;2022-07-23T04:24:21;12.67;;;6.77;;
12836;SDS011;6485;51.472;5.268;2022-07-23T04:26:50;10.87;;;6.70;;
12836;SDS011;6485;51.472;5.268;2022-07-23T04:29:19;9.30;;;6.33;;
12836;SDS011;6485;51.472;5.268;2022-07-23T04:31:48;11.30;;;6.90;;
12836;SDS011;6485;51.472;5.268;2022-07-23T04:34:17;12.00;;;6.93;;
12836;SDS011;6485;51.472;5.268;2022-07-23T04:36:45;9.97;;;6.37;;
12836;SDS011;6485;51.472;5.268;2022-07-23T04:39:14;9.73;;;6.70;;
12836;SDS011;6485;51.472;5.268;2022-07-23T04:41:42;12.13;;;7.00;;
12836;SDS011;6485;51.472;5.268;2022-07-23T04:44:10;11.40;;;6.60;;
12836;SDS011;6485;51.472;5.268;2022-07-23T04:46:38;9.97;;;6.33;;
12836;SDS011;6485;51.472;5.268;2022-07-23T04:49:08;11.20;;;6.73;;
12836;SDS011;6485;51.472;5.268;2022-07-23T04:51:37;11.53;;;7.10;;
12836;SDS011;6485;51.472;5.268;2022-07-23T04:54:05;10.37;;;6.43;;
12836;SDS011;6485;51.472;5.268;2022-07-23T04:56:33;12.63;;;6.47;;
12836;SDS011;6485;51.472;5.268;2022-07-23T04:59:02;10.50;;;6.50;;
12836;SDS011;6485;51.472;5.268;2022-07-23T05:01:31;10.00;;;6.27;;
12836;SDS011;6485;51.472;5.268;2022-07-23T05:03:59;8.73;;;6.40;;
12836;SDS011;6485;51.472;5.268;2022-07-23T05:06:29;11.67;;;7.17;;
12836;SDS011;6485;51.472;5.268;2022-07-23T05:08:57;10.87;;;6.53;;
12836;SDS011;6485;51.472;5.268;2022-07-23T05:11:25;12.47;;;6.87;;
12836;SDS011;6485;51.472;5.268;2022-07-23T05:13:53;11.50;;;6.67;;
12836;SDS011;6485;51.472;5.268;2022-07-23T05:16:22;11.23;;;7.07;;
12836;SDS011;6485;51.472;5.268;2022-07-23T05:18:50;13.23;;;6.80;;
12836;SDS011;6485;51.472;5.268;2022-07-23T05:21:20;10.43;;;6.67;;
12836;SDS011;6485;51.472;5.268;2022-07-23T05:23:50;10.03;;;6.97;;
12836;SDS011;6485;51.472;5.268;2022-07-23T05:26:18;9.53;;;6.80;;
12836;SDS011;6485;51.472;5.268;2022-07-23T05:28:47;10.93;;;7.00;;
12836;SDS011;6485;51.472;5.268;2022-07-23T05:31:15;9.73;;;6.80;;
12836;SDS011;6485;51.472;5.268;2022-07-23T05:33:44;11.70;;;6.83;;
12836;SDS011;6485;51.472;5.268;2022-07-23T05:36:12;12.27;;;7.47;;
12836;SDS011;6485;51.472;5.268;2022-07-23T05:38:41;11.57;;;6.87;;
12836;SDS011;6485;51.472;5.268;2022-07-23T05:41:11;9.60;;;6.87;;
12836;SDS011;6485;51.472;5.268;2022-07-23T05:43:39;12.50;;;7.57;;
12836;SDS011;6485;51.472;5.268;2022-07-23T05:46:07;10.67;;;7.50;;
12836;SDS011;6485;51.472;5.268;2022-07-23T05:48:36;16.20;;;9.93;;
12836;SDS011;6485;51.472;5.268;2022-07-23T05:51:04;11.70;;;7.53;;
12836;SDS011;6485;51.472;5.268;2022-07-23T05:53:33;10.07;;;7.13;;
12836;SDS011;6485;51.472;5.268;2022-07-23T05:56:01;14.57;;;6.73;;
12836;SDS011;6485;51.472;5.268;2022-07-23T05:58:32;13.07;;;6.97;;
12836;SDS011;6485;51.472;5.268;2022-07-23T06:01:00;12.13;;;7.20;;
12836;SDS011;6485;51.472;5.268;2022-07-23T06:03:28;12.23;;;6.87;;
12836;SDS011;6485;51.472;5.268;2022-07-23T06:05:57;11.17;;;7.10;;
12836;SDS011;6485;51.472;5.268;2022-07-23T06:08:25;11.07;;;7.20;;
12836;SDS011;6485;51.472;5.268;2022-07-23T06:10:53;10.00;;;6.90;;
12836;SDS011;6485;51.472;5.268;2022-07-23T06:13:21;11.63;;;7.40;;
12836;SDS011;6485;51.472;5.268;2022-07-23T06:15:51;13.27;;;7.60;;
12836;SDS011;6485;51.472;5.268;2022-07-23T06:18:19;12.23;;;6.77;;
12836;SDS011;6485;51.472;5.268;2022-07-23T06:20:48;12.70;;;6.87;;
12836;SDS011;6485;51.472;5.268;2022-07-23T06:23:22;10.50;;;6.60;;
12836;SDS011;6485;51.472;5.268;2022-07-23T06:25:50;11.93;;;7.23;;
12836;SDS011;6485;51.472;5.268;2022-07-23T06:28:18;10.93;;;6.87;;
12836;SDS011;6485;51.472;5.268;2022-07-23T06:30:47;10.23;;;6.83;;
12836;SDS011;6485;51.472;5.268;2022-07-23T06:33:17;9.67;;;7.03;;
12836;SDS011;6485;51.472;5.268;2022-07-23T06:35:45;16.27;;;6.80;;
12836;SDS011;6485;51.472;5.268;2022-07-23T06:38:13;10.97;;;7.30;;
12836;SDS011;6485;51.472;5.268;2022-07-23T06:40:42;11.43;;;6.63;;
12836;SDS011;6485;51.472;5.268;2022-07-23T06:43:11;11.40;;;6.50;;
12836;SDS011;6485;51.472;5.268;2022-07-23T06:45:39;11.60;;;6.80;;
12836;SDS011;6485;51.472;5.268;2022-07-23T06:48:07;11.03;;;5.73;;
12836;SDS011;6485;51.472;5.268;2022-07-23T06:50:37;8.47;;;5.97;;
12836;SDS011;6485;51.472;5.268;2022-07-23T06:53:05;8.97;;;6.47;;
12836;SDS011;6485;51.472;5.268;2022-07-23T06:55:34;9.87;;;6.57;;
12836;SDS011;6485;51.472;5.268;2022-07-23T06:58:04;9.90;;;5.80;;
12836;SDS011;6485;51.472;5.268;2022-07-23T07:00:33;8.63;;;5.93;;
12836;SDS011;6485;51.472;5.268;2022-07-23T07:03:01;10.30;;;6.00;;
12836;SDS011;6485;51.472;5.268;2022-07-23T07:05:30;9.50;;;5.50;;
12836;SDS011;6485;51.472;5.268;2022-07-23T07:08:01;8.13;;;5.80;;
12836;SDS011;6485;51.472;5.268;2022-07-23T07:10:29;13.30;;;8.90;;
12836;SDS011;6485;51.472;5.268;2022-07-23T07:12:58;10.00;;;5.20;;
12836;SDS011;6485;51.472;5.268;2022-07-23T07:15:26;8.47;;;4.97;;
12836;SDS011;6485;51.472;5.268;2022-07-23T07:17:54;9.13;;;5.10;;
12836;SDS011;6485;51.472;5.268;2022-07-23T07:20:23;7.00;;;4.70;;
12836;SDS011;6485;51.472;5.268;2022-07-23T07:22:51;8.20;;;4.63;;
12836;SDS011;6485;51.472;5.268;2022-07-23T07:25:21;6.10;;;3.87;;
12836;SDS011;6485;51.472;5.268;2022-07-23T07:27:49;5.70;;;4.17;;
12836;SDS011;6485;51.472;5.268;2022-07-23T07:30:17;6.53;;;4.30;;
12836;SDS011;6485;51.472;5.268;2022-07-23T07:32:45;7.00;;;4.40;;
12836;SDS011;6485;51.472;5.268;2022-07-23T07:35:23;6.93;;;4.20;;
12836;SDS011;6485;51.472;5.268;2022-07-23T07:37:52;6.10;;;3.93;;
12836;SDS011;6485;51.472;5.268;2022-07-23T07:40:21;5.93;;;4.00;;
12836;SDS011;6485;51.472;5.268;2022-07-23T07:42:55;6.07;;;3.63;;
12836;SDS011;6485;51.472;5.268;2022-07-23T07:45:24;10.77;;;4.20;;
12836;SDS011;6485;51.472;5.268;2022-07-23T07:47:53;6.30;;;3.80;;
12836;SDS011;6485;51.472;5.268;2022-07-23T07:50:21;5.87;;;4.00;;
12836;SDS011;6485;51.472;5.268;2022-07-23T07:52:51;7.00;;;4.10;;
12836;SDS011;6485;51.472;5.268;2022-07-23T07:55:19;7.60;;;4.20;;
12836;SDS011;6485;51.472;5.268;2022-07-23T07:57:49;6.33;;;4.00;;
12836;SDS011;6485;51.472;5.268;2022-07-23T08:00:17;8.80;;;3.97;;
12836;SDS011;6485;51.472;5.268;2022-07-23T08:02:53;5.77;;;3.83;;
12836;SDS011;6485;51.472;5.268;2022-07-23T08:05:26;8.10;;;4.27;;
12836;SDS011;6485;51.472;5.268;2022-07-23T08:07:56;7.67;;;4.23;;
12836;SDS011;6485;51.472;5.268;2022-07-23T08:10:25;7.00;;;4.43;;
12836;SDS011;6485;51.472;5.268;2022-07-23T08:12:57;4.90;;;3.73;;
12836;SDS011;6485;51.472;5.268;2022-07-23T08:15:28;5.17;;;4.00;;
12836;SDS011;6485;51.472;5.268;2022-07-23T08:18:07;5.07;;;3.60;;
12836;SDS011;6485;51.472;5.268;2022-07-23T08:20:35;6.83;;;3.60;;
12836;SDS011;6485;51.472;5.268;2022-07-23T08:23:04;5.17;;;3.63;;
12836;SDS011;6485;51.472;5.268;2022-07-23T08:25:37;8.33;;;4.07;;
12836;SDS011;6485;51.472;5.268;2022-07-23T08:28:09;5.73;;;4.17;;
12836;SDS011;6485;51.472;5.268;2022-07-23T08:30:39;4.93;;;3.27;;
12836;SDS011;6485;51.472;5.268;2022-07-23T08:33:09;6.83;;;3.93;;
12836;SDS011;6485;51.472;5.268;2022-07-23T08:35:59;5.10;;;3.87;;
12836;SDS011;6485;51.472;5.268;2022-07-23T08:38:29;6.10;;;4.10;;
12836;SDS011;6485;51.472;5.268;2022-07-23T08:40:58;4.27;;;3.40;;
12836;SDS011;6485;51.472;5.268;2022-07-23T08:43:29;8.60;;;4.17;;
12836;SDS011;6485;51.472;5.268;2022-07-23T08:45:59;7.00;;;3.83;;
12836;SDS011;6485;51.472;5.268;2022-07-23T08:48:29;6.03;;;3.90;;
12836;SDS011;6485;51.472;5.268;2022-07-23T08:50:59;7.00;;;4.00;;
12836;SDS011;6485;51.472;5.268;2022-07-23T08:53:29;6.37;;;3.87;;
12836;SDS011;6485;51.472;5.268;2022-07-23T08:55:59;5.10;;;3.50;;
12836;SDS011;6485;51.472;5.268;2022-07-23T08:58:30;8.07;;;3.83;;
12836;SDS011;6485;51.472;5.268;2022-07-23T09:01:00;4.50;;;3.70;;
12836;SDS011;6485;51.472;5.268;2022-07-23T09:03:30;5.53;;;4.20;;
12836;SDS011;6485;51.472;5.268;2022-07-23T09:06:00;5.00;;;3.67;;
12836;SDS011;6485;51.472;5.268;2022-07-23T09:08:34;4.20;;;3.60;;
12836;SDS011;6485;51.472;5.268;2022-07-23T09:11:05;5.00;;;3.77;;
12836;SDS011;6485;51.472;5.268;2022-07-23T09:13:38;5.90;;;4.13;;
12836;SDS011;6485;51.472;5.268;2022-07-23T09:16:11;8.00;;;4.17;;
12836;SDS011;6485;51.472;5.268;2022-07-23T09:18:43;6.43;;;4.03;;
12836;SDS011;6485;51.472;5.268;2022-07-23T09:21:18;7.23;;;4.47;;
12836;SDS011;6485;51.472;5.268;2022-07-23T09:23:51;7.87;;;4.10;;
12836;SDS011;6485;51.472;5.268;2022-07-23T09:26:26;5.77;;;4.20;;
12836;SDS011;6485;51.472;5.268;2022-07-23T09:29:02;6.20;;;4.10;;
12836;SDS011;6485;51.472;5.268;2022-07-23T09:31:45;6.03;;;4.00;;
12836;SDS011;6485;51.472;5.268;2022-07-23T09:34:19;5.80;;;4.10;;
12836;SDS011;6485;51.472;5.268;2022-07-23T09:36:50;6.23;;;4.10;;
12836;SDS011;6485;51.472;5.268;2022-07-23T09:39:25;5.10;;;4.27;;
12836;SDS011;6485;51.472;5.268;2022-07-23T09:41:55;4.73;;;3.80;;
12836;SDS011;6485;51.472;5.268;2022-07-23T09:44:25;4.70;;;3.63;;
12836;SDS011;6485;51.472;5.268;2022-07-23T09:46:57;7.93;;;4.23;;
12836;SDS011;6485;51.472;5.268;2022-07-23T09:49:27;7.10;;;4.20;;
12836;SDS011;6485;51.472;5.268;2022-07-23T09:51:57;4.93;;;3.70;;
12836;SDS011;6485;51.472;5.268;2022-07-23T09:54:31;4.67;;;3.90;;
12836;SDS011;6485;51.472;5.268;2022-07-23T09:57:03;5.90;;;4.10;;
12836;SDS011;6485;51.472;5.268;2022-07-23T09:59:36;8.97;;;4.57;;
12836;SDS011;6485;51.472;5.268;2022-07-23T10:02:06;6.37;;;4.20;;
12836;SDS011;6485;51.472;5.268;2022-07-23T10:04:37;7.53;;;4.23;;
12836;SDS011;6485;51.472;5.268;2022-07-23T10:07:07;6.83;;;4.60;;
12836;SDS011;6485;51.472;5.268;2022-07-23T10:09:38;6.30;;;4.47;;
12836;SDS011;6485;51.472;5.268;2022-07-23T10:12:09;5.63;;;4.23;;
12836;SDS011;6485;51.472;5.268;2022-07-23T10:14:46;7.43;;;4.57;;
12836;SDS011;6485;51.472;5.268;2022-07-23T10:17:15;6.77;;;4.30;;
12836;SDS011;6485;51.472;5.268;2022-07-23T10:19:44;7.43;;;4.03;;
12836;SDS011;6485;51.472;5.268;2022-07-23T10:22:15;7.03;;;4.57;;
12836;SDS011;6485;51.472;5.268;2022-07-23T10:24:59;5.37;;;4.17;;
12836;SDS011;6485;51.472;5.268;2022-07-23T10:28:02;8.37;;;4.30;;
12836;SDS011;6485;51.472;5.268;2022-07-23T10:30:45;5.93;;;4.13;;
12836;SDS011;6485;51.472;5.268;2022-07-23T10:33:32;6.37;;;3.73;;
12836;SDS011;6485;51.472;5.268;2022-07-23T10:36:18;8.10;;;4.50;;
12836;SDS011;6485;51.472;5.268;2022-07-23T10:38:51;6.80;;;4.47;;
12836;SDS011;6485;51.472;5.268;2022-07-23T10:41:31;6.13;;;4.07;;
12836;SDS011;6485;51.472;5.268;2022-07-23T10:44:08;5.10;;;3.70;;
12836;SDS011;6485;51.472;5.268;2022-07-23T10:46:56;4.13;;;3.00;;
12836;SDS011;6485;51.472;5.268;2022-07-23T14:35:29;4.23;;;3.10;;
12836;SDS011;6485;51.472;5.268;2022-07-23T14:37:58;8.83;;;3.30;;
12836;SDS011;6485;51.472;5.268;2022-07-23T14:40:26;4.73;;;3.40;;
12836;SDS011;6485;51.472;5.268;2022-07-23T14:42:54;3.90;;;3.13;;
12836;SDS011;6485;51.472;5.268;2022-07-23T14:45:23;3.37;;;2.70;;
12836;SDS011;6485;51.472;5.268;2022-07-23T14:47:51;3.37;;;2.93;;
12836;SDS011;6485;51.472;5.268;2022-07-23T14:50:19;6.47;;;3.27;;
12836;SDS011;6485;51.472;5.268;2022-07-23T14:52:49;6.77;;;3.30;;
12836;SDS011;6485;51.472;5.268;2022-07-23T14:55:17;4.67;;;3.20;;
12836;SDS011;6485;51.472;5.268;2022-07-23T14:57:46;3.30;;;3.00;;
12836;SDS011;6485;51.472;5.268;2022-07-23T15:00:14;3.87;;;2.90;;
12836;SDS011;6485;51.472;5.268;2022-07-23T15:02:43;5.60;;;3.03;;
12836;SDS011;6485;51.472;5.268;2022-07-23T15:05:31;3.70;;;2.53;;
12836;SDS011;6485;51.472;5.268;2022-07-23T15:08:01;4.37;;;3.20;;
12836;SDS011;6485;51.472;5.268;2022-07-23T15:10:34;5.07;;;3.20;;
12836;SDS011;6485;51.472;5.268;2022-07-23T15:13:03;3.47;;;3.00;;
12836;SDS011;6485;51.472;5.268;2022-07-23T15:15:33;4.90;;;3.60;;
12836;SDS011;6485;51.472;5.268;2022-07-23T15:18:03;3.23;;;2.93;;
12836;SDS011;6485;51.472;5.268;2022-07-23T15:20:31;4.30;;;3.17;;
12836;SDS011;6485;51.472;5.268;2022-07-23T15:23:08;4.23;;;3.00;;
12836;SDS011;6485;51.472;5.268;2022-07-23T15:25:36;4.33;;;3.40;;
12836;SDS011;6485;51.472;5.268;2022-07-23T15:28:16;6.93;;;3.37;;
12836;SDS011;6485;51.472;5.268;2022-07-23T15:30:47;3.93;;;3.27;;
12836;SDS011;6485;51.472;5.268;2022-07-23T15:33:16;4.20;;;3.70;;
12836;SDS011;6485;51.472;5.268;2022-07-23T15:35:46;6.03;;;3.50;;
12836;SDS011;6485;51.472;5.268;2022-07-23T15:38:17;5.37;;;3.57;;
12836;SDS011;6485;51.472;5.268;2022-07-23T15:40:51;4.50;;;3.93;;
12836;SDS011;6485;51.472;5.268;2022-07-23T15:43:21;5.27;;;3.87;;
12836;SDS011;6485;51.472;5.268;2022-07-23T15:45:51;10.90;;;3.83;;
12836;SDS011;6485;51.472;5.268;2022-07-23T15:48:20;4.20;;;3.60;;
12836;SDS011;6485;51.472;5.268;2022-07-23T15:50:50;4.93;;;4.00;;
12836;SDS011;6485;51.472;5.268;2022-07-23T15:53:20;6.17;;;4.50;;
12836;SDS011;6485;51.472;5.268;2022-07-23T15:56:02;5.60;;;4.60;;
12836;SDS011;6485;51.472;5.268;2022-07-23T15:58:42;5.10;;;4.37;;
12836;SDS011;6485;51.472;5.268;2022-07-23T16:01:11;4.57;;;3.83;;
12836;SDS011;6485;51.472;5.268;2022-07-23T16:03:40;4.03;;;3.63;;
12836;SDS011;6485;51.472;5.268;2022-07-23T16:06:10;7.73;;;3.60;;
12836;SDS011;6485;51.472;5.268;2022-07-23T16:08:45;5.30;;;4.03;;
12836;SDS011;6485;51.472;5.268;2022-07-23T16:11:14;4.10;;;3.70;;
12836;SDS011;6485;51.472;5.268;2022-07-23T16:13:43;4.67;;;3.70;;
12836;SDS011;6485;51.472;5.268;2022-07-23T16:16:11;4.47;;;3.60;;
12836;SDS011;6485;51.472;5.268;2022-07-23T16:18:40;4.87;;;3.70;;
12836;SDS011;6485;51.472;5.268;2022-07-23T16:21:08;3.40;;;3.10;;
12836;SDS011;6485;51.472;5.268;2022-07-23T16:23:41;4.70;;;3.93;;
12836;SDS011;6485;51.472;5.268;2022-07-23T16:26:11;5.10;;;3.90;;
12836;SDS011;6485;51.472;5.268;2022-07-23T16:28:41;7.60;;;4.10;;
12836;SDS011;6485;51.472;5.268;2022-07-23T16:31:10;6.90;;;4.20;;
12836;SDS011;6485;51.472;5.268;2022-07-23T16:33:39;5.53;;;3.87;;
12836;SDS011;6485;51.472;5.268;2022-07-23T16:36:08;5.10;;;3.50;;
12836;SDS011;6485;51.472;5.268;2022-07-23T16:38:37;4.63;;;3.70;;
12836;SDS011;6485;51.472;5.268;2022-07-23T16:41:06;5.33;;;4.33;;
12836;SDS011;6485;51.472;5.268;2022-07-23T16:43:37;4.83;;;4.07;;
12836;SDS011;6485;51.472;5.268;2022-07-23T16:46:06;4.77;;;4.20;;
12836;SDS011;6485;51.472;5.268;2022-07-23T16:48:34;6.37;;;4.00;;
12836;SDS011;6485;51.472;5.268;2022-07-23T16:51:05;4.47;;;3.90;;
12836;SDS011;6485;51.472;5.268;2022-07-23T16:53:33;4.17;;;3.77;;
12836;SDS011;6485;51.472;5.268;2022-07-23T16:56:02;7.23;;;3.93;;
12836;SDS011;6485;51.472;5.268;2022-07-23T16:58:31;4.97;;;4.20;;
12836;SDS011;6485;51.472;5.268;2022-07-23T17:01:01;6.10;;;4.03;;
12836;SDS011;6485;51.472;5.268;2022-07-23T17:03:30;5.73;;;4.50;;
12836;SDS011;6485;51.472;5.268;2022-07-23T17:05:58;5.03;;;4.23;;
12836;SDS011;6485;51.472;5.268;2022-07-23T17:08:27;4.60;;;3.93;;
12836;SDS011;6485;51.472;5.268;2022-07-23T17:10:55;4.53;;;4.10;;
12836;SDS011;6485;51.472;5.268;2022-07-23T17:13:24;5.30;;;4.20;;
12836;SDS011;6485;51.472;5.268;2022-07-23T17:15:53;5.43;;;4.10;;
12836;SDS011;6485;51.472;5.268;2022-07-23T17:18:23;5.03;;;4.20;;
12836;SDS011;6485;51.472;5.268;2022-07-23T17:20:52;5.30;;;4.20;;
12836;SDS011;6485;51.472;5.268;2022-07-23T17:23:20;4.70;;;3.93;;
12836;SDS011;6485;51.472;5.268;2022-07-23T17:25:49;7.27;;;4.20;;
12836;SDS011;6485;51.472;5.268;2022-07-23T17:28:17;5.30;;;4.30;;
12836;SDS011;6485;51.472;5.268;2022-07-23T17:30:45;4.63;;;4.13;;
12836;SDS011;6485;51.472;5.268;2022-07-23T17:33:13;5.87;;;4.03;;
12836;SDS011;6485;51.472;5.268;2022-07-23T17:35:43;5.40;;;4.00;;
12836;SDS011;6485;51.472;5.268;2022-07-23T17:38:12;4.60;;;4.03;;
12836;SDS011;6485;51.472;5.268;2022-07-23T17:40:41;5.27;;;3.77;;
12836;SDS011;6485;51.472;5.268;2022-07-23T17:43:09;5.30;;;3.93;;
12836;SDS011;6485;51.472;5.268;2022-07-23T17:45:37;4.60;;;4.10;;
12836;SDS011;6485;51.472;5.268;2022-07-23T17:48:08;5.60;;;3.93;;
12836;SDS011;6485;51.472;5.268;2022-07-23T17:50:36;5.27;;;4.20;;
12836;SDS011;6485;51.472;5.268;2022-07-23T17:53:07;4.93;;;4.13;;
12836;SDS011;6485;51.472;5.268;2022-07-23T17:55:35;5.80;;;3.93;;
12836;SDS011;6485;51.472;5.268;2022-07-23T17:58:03;5.67;;;4.20;;
12836;SDS011;6485;51.472;5.268;2022-07-23T18:00:33;4.70;;;3.97;;
12836;SDS011;6485;51.472;5.268;2022-07-23T18:03:03;4.57;;;4.00;;
12836;SDS011;6485;51.472;5.268;2022-07-23T18:05:33;6.57;;;4.10;;
12836;SDS011;6485;51.472;5.268;2022-07-23T18:08:01;5.07;;;4.47;;
12836;SDS011;6485;51.472;5.268;2022-07-23T18:10:31;5.03;;;4.10;;
12836;SDS011;6485;51.472;5.268;2022-07-23T18:13:01;4.90;;;4.03;;
12836;SDS011;6485;51.472;5.268;2022-07-23T18:15:30;5.90;;;4.23;;
12836;SDS011;6485;51.472;5.268;2022-07-23T18:17:59;5.50;;;4.80;;
12836;SDS011;6485;51.472;5.268;2022-07-23T18:20:28;7.00;;;4.90;;
12836;SDS011;6485;51.472;5.268;2022-07-23T18:23:03;6.63;;;4.60;;
12836;SDS011;6485;51.472;5.268;2022-07-23T18:25:32;6.33;;;4.47;;
12836;SDS011;6485;51.472;5.268;2022-07-23T18:28:01;6.30;;;4.60;;
12836;SDS011;6485;51.472;5.268;2022-07-23T18:30:29;5.63;;;5.07;;
12836;SDS011;6485;51.472;5.268;2022-07-23T18:32:59;5.53;;;4.90;;
12836;SDS011;6485;51.472;5.268;2022-07-23T18:35:33;7.23;;;5.20;;
12836;SDS011;6485;51.472;5.268;2022-07-23T18:38:02;5.97;;;4.60;;
12836;SDS011;6485;51.472;5.268;2022-07-23T18:40:32;7.07;;;4.97;;
12836;SDS011;6485;51.472;5.268;2022-07-23T18:43:01;6.97;;;5.10;;
12836;SDS011;6485;51.472;5.268;2022-07-23T18:45:29;6.33;;;4.67;;
12836;SDS011;6485;51.472;5.268;2022-07-23T18:47:57;5.67;;;5.10;;
12836;SDS011;6485;51.472;5.268;2022-07-23T18:50:26;6.10;;;5.20;;
12836;SDS011;6485;51.472;5.268;2022-07-23T18:52:59;6.10;;;5.10;;
12836;SDS011;6485;51.472;5.268;2022-07-23T18:55:27;7.27;;;5.00;;
12836;SDS011;6485;51.472;5.268;2022-07-23T18:57:57;6.20;;;5.03;;
12836;SDS011;6485;51.472;5.268;2022-07-23T19:00:29;6.83;;;5.23;;